Terminal Aerodrome Forecast
Issued by NWS New Orleans/Baton Rouge, LA

Home | Current Version | Previous Version | Text Only | Print | Product List | Glossary On
Versions: 1 2 3 4 5 6 7 8 9 10 11 12
000
FTUS44 KLIX 261139
TAFNEW
TAF
KNEW 261139Z 2612/2712 31009KT P6SM SKC
     FM261500 36006KT P6SM SKC
     FM262000 32006KT P6SM VCSH SCT050
     FM270400 34011G20KT P6SM BKN100=

USA.gov is the U.S. government's official web portal to all federal, state and local government web resources and services.